createdAt,value
2023-05-21T00:00:17.316Z,73.00
2023-05-21T00:00:26.991Z,73.00
2023-05-21T00:00:36.411Z,73.00
2023-05-21T00:00:45.816Z,73.10
2023-05-21T00:00:55.206Z,73.00
2023-05-21T00:01:04.630Z,73.10
2023-05-21T00:01:23.430Z,73.20
2023-05-21T00:01:32.855Z,73.20
2023-05-21T00:01:42.306Z,73.20
2023-05-21T00:01:51.703Z,73.20
2023-05-21T00:02:01.095Z,73.20
2023-05-21T00:02:10.471Z,73.20
2023-05-21T00:02:29.333Z,73.30
2023-05-21T00:02:38.722Z,73.20
2023-05-21T00:02:48.203Z,73.20
2023-05-21T00:02:57.534Z,73.30
2023-05-21T00:03:06.976Z,73.30
2023-05-21T00:03:16.364Z,73.30
2023-05-21T00:03:35.211Z,73.30
2023-05-21T00:03:44.662Z,73.40
2023-05-21T00:03:54.216Z,73.30
2023-05-21T00:04:03.486Z,73.30
2023-05-21T00:04:12.763Z,73.30
2023-05-21T00:04:22.154Z,73.30
2023-05-21T00:04:40.958Z,73.30
2023-05-21T00:04:53.263Z,73.30
2023-05-21T00:05:00.302Z,73.30
2023-05-21T00:05:11.029Z,73.40
2023-05-21T00:05:19.076Z,73.30
2023-05-21T00:05:28.480Z,73.30
2023-05-21T00:05:47.402Z,73.50
2023-05-21T00:05:56.675Z,73.50
2023-05-21T00:06:06.074Z,73.50
2023-05-21T00:06:15.601Z,73.60
2023-05-21T00:06:24.836Z,73.60
2023-05-21T00:06:34.291Z,73.60
2023-05-21T00:06:53.027Z,73.70
2023-05-21T00:07:02.413Z,73.70
2023-05-21T00:07:11.835Z,73.70
2023-05-21T00:07:21.249Z,73.80
2023-05-21T00:07:30.671Z,73.70
2023-05-21T00:07:40.111Z,73.70
2023-05-21T00:07:58.918Z,73.80
2023-05-21T00:08:08.322Z,73.70
2023-05-21T00:08:17.733Z,73.60
2023-05-21T00:08:27.123Z,73.60
2023-05-21T00:08:36.555Z,73.50
2023-05-21T00:08:45.957Z,73.50
2023-05-21T00:09:04.784Z,73.40
2023-05-21T00:09:14.203Z,73.30
2023-05-21T00:09:23.629Z,73.30
2023-05-21T00:09:33.024Z,73.50
2023-05-21T00:09:42.452Z,73.50
2023-05-21T00:09:51.846Z,73.60
2023-05-21T00:10:10.658Z,73.70
2023-05-21T00:10:20.028Z,73.80
2023-05-21T00:10:29.434Z,73.90
2023-05-21T00:10:38.834Z,73.90
2023-05-21T00:10:48.239Z,74.10
2023-05-21T00:10:57.635Z,74.20
2023-05-21T00:11:16.454Z,74.40
2023-05-21T00:11:25.829Z,74.60
2023-05-21T00:11:35.259Z,74.70
2023-05-21T00:11:44.664Z,74.80
2023-05-21T00:11:54.054Z,75.10
2023-05-21T00:12:03.450Z,75.20
2023-05-21T00:12:22.280Z,75.50
2023-05-21T00:12:31.709Z,75.60
2023-05-21T00:12:41.136Z,75.90
2023-05-21T00:12:50.506Z,76.00
2023-05-21T00:12:59.915Z,76.30
2023-05-21T00:13:09.312Z,76.40
2023-05-21T00:13:28.177Z,76.70
2023-05-21T00:13:37.592Z,77.00
2023-05-21T00:13:47.004Z,77.20
2023-05-21T00:13:56.400Z,77.50
2023-05-21T00:14:05.844Z,77.60
2023-05-21T00:14:15.226Z,77.70
2023-05-21T00:14:34.062Z,78.10
2023-05-21T00:14:43.471Z,78.20
2023-05-21T00:14:52.913Z,78.20
2023-05-21T00:15:02.310Z,78.40
2023-05-21T00:15:11.745Z,78.70
2023-05-21T00:15:21.152Z,78.70
2023-05-21T00:15:39.951Z,79.20
2023-05-21T00:15:49.399Z,79.50
2023-05-21T00:15:58.862Z,79.80
2023-05-21T00:16:08.264Z,80.00
2023-05-21T00:16:17.745Z,80.00
2023-05-21T00:16:27.171Z,80.60
2023-05-21T00:16:45.916Z,81.00
2023-05-21T00:16:55.327Z,81.10
2023-05-21T00:17:04.732Z,81.20
2023-05-21T00:17:14.135Z,81.30
2023-05-21T00:17:23.521Z,81.30
2023-05-21T00:17:32.978Z,81.60
2023-05-21T00:17:51.854Z,82.00
2023-05-21T00:18:01.238Z,82.20
2023-05-21T00:18:10.641Z,82.20
2023-05-21T00:18:19.985Z,82.40
2023-05-21T00:18:29.362Z,82.40
2023-05-21T00:18:38.798Z,82.40
2023-05-21T00:18:57.681Z,82.80
2023-05-21T00:19:07.014Z,82.90
2023-05-21T00:19:16.430Z,83.10
2023-05-21T00:19:25.895Z,83.30
2023-05-21T00:19:35.181Z,83.50
2023-05-21T00:19:44.565Z,83.60
2023-05-21T00:20:03.344Z,83.70
2023-05-21T00:20:12.716Z,83.80
2023-05-21T00:20:22.119Z,83.80
2023-05-21T00:20:31.526Z,84.00
2023-05-21T00:20:40.912Z,83.90
2023-05-21T00:20:50.298Z,84.10
2023-05-21T00:21:09.096Z,84.00
2023-05-21T00:21:18.491Z,83.90
2023-05-21T00:21:27.889Z,83.90
2023-05-21T00:21:37.290Z,83.70
2023-05-21T00:21:46.695Z,83.60
2023-05-21T00:21:56.131Z,83.50
2023-05-21T00:22:14.889Z,83.40
2023-05-21T00:22:24.298Z,83.30
2023-05-21T00:22:33.686Z,83.20
2023-05-21T00:22:43.087Z,83.00
2023-05-21T00:22:52.486Z,82.80
2023-05-21T00:23:01.898Z,82.80
2023-05-21T00:23:20.752Z,82.40
2023-05-21T00:23:30.124Z,82.30
2023-05-21T00:23:40.378Z,82.20
2023-05-21T00:23:49.824Z,82.00
2023-05-21T00:23:59.216Z,81.80
2023-05-21T00:24:08.619Z,81.80
2023-05-21T00:24:27.344Z,81.60
2023-05-21T00:24:36.732Z,81.50
2023-05-21T00:24:46.124Z,81.40
2023-05-21T00:24:55.527Z,81.30
2023-05-21T00:25:04.908Z,81.10
2023-05-21T00:25:14.297Z,81.00
2023-05-21T00:25:33.332Z,80.70
2023-05-21T00:25:42.496Z,80.60
2023-05-21T00:25:51.988Z,80.50
2023-05-21T00:26:01.457Z,80.40
2023-05-21T00:26:10.814Z,80.30
2023-05-21T00:26:20.197Z,80.20
2023-05-21T00:26:38.981Z,79.90
2023-05-21T00:26:48.366Z,79.80
2023-05-21T00:26:57.778Z,79.80
2023-05-21T00:27:07.160Z,79.60
2023-05-21T00:27:16.627Z,79.70
2023-05-21T00:27:25.975Z,79.50
2023-05-21T00:27:44.792Z,79.30
2023-05-21T00:27:54.167Z,79.30
2023-05-21T00:28:03.563Z,79.20
2023-05-21T00:28:12.984Z,79.10
2023-05-21T00:28:22.365Z,79.10
2023-05-21T00:28:31.813Z,79.00
2023-05-21T00:28:50.601Z,79.00
2023-05-21T00:29:00.000Z,79.00
2023-05-21T00:29:09.405Z,78.90
2023-05-21T00:29:18.821Z,78.90
2023-05-21T00:29:28.223Z,78.90
2023-05-21T00:29:37.620Z,78.80
2023-05-21T00:29:56.431Z,78.70
2023-05-21T00:30:05.804Z,78.70
2023-05-21T00:30:15.182Z,78.70
2023-05-21T00:30:24.604Z,78.70
2023-05-21T00:30:34.026Z,78.60
2023-05-21T00:30:43.399Z,78.60
2023-05-21T00:31:02.189Z,78.50
2023-05-21T00:31:11.676Z,78.40
2023-05-21T00:31:21.065Z,78.30
2023-05-21T00:31:30.422Z,78.30
2023-05-21T00:31:39.829Z,78.20
2023-05-21T00:31:49.416Z,78.20
2023-05-21T00:32:08.126Z,78.10
2023-05-21T00:32:17.470Z,78.00
2023-05-21T00:32:26.877Z,78.00
2023-05-21T00:32:36.344Z,77.90
2023-05-21T00:32:45.722Z,77.90
2023-05-21T00:32:55.164Z,77.90
2023-05-21T00:33:13.945Z,77.70
2023-05-21T00:33:23.309Z,77.70
2023-05-21T00:33:32.760Z,77.60
2023-05-21T00:33:42.177Z,77.50
2023-05-21T00:33:51.613Z,77.50
2023-05-21T00:34:01.003Z,77.40
2023-05-21T00:34:19.783Z,77.30
2023-05-21T00:34:29.189Z,77.30
2023-05-21T00:34:38.603Z,77.30
2023-05-21T00:34:48.010Z,77.20
2023-05-21T00:34:57.412Z,77.30
2023-05-21T00:35:06.831Z,77.30
2023-05-21T00:35:25.601Z,77.20
2023-05-21T00:35:35.312Z,77.10
2023-05-21T00:35:44.422Z,77.10
2023-05-21T00:35:53.755Z,77.10
2023-05-21T00:36:03.146Z,77.00
2023-05-21T00:36:12.532Z,77.00
2023-05-21T00:36:31.361Z,77.10
2023-05-21T00:36:40.754Z,77.10
2023-05-21T00:36:50.184Z,77.10
2023-05-21T00:36:59.568Z,77.10
2023-05-21T00:37:08.957Z,77.10
2023-05-21T00:37:18.399Z,77.10
2023-05-21T00:37:37.190Z,77.10
2023-05-21T00:37:46.605Z,77.10
2023-05-21T00:37:56.013Z,77.10
2023-05-21T00:38:05.407Z,77.10
2023-05-21T00:38:14.778Z,77.10
2023-05-21T00:38:24.216Z,77.10
2023-05-21T00:38:43.100Z,77.10
2023-05-21T00:38:52.504Z,77.10
2023-05-21T00:39:01.940Z,77.10
2023-05-21T00:39:11.359Z,77.00
2023-05-21T00:39:20.739Z,77.00
2023-05-21T00:39:30.151Z,77.00
2023-05-21T00:39:48.965Z,77.00
2023-05-21T00:39:58.520Z,77.00
2023-05-21T00:40:07.779Z,76.90
2023-05-21T00:40:17.123Z,76.90
2023-05-21T00:40:26.518Z,76.80
2023-05-21T00:40:35.940Z,76.80
2023-05-21T00:40:54.746Z,76.80
2023-05-21T00:41:04.128Z,76.70
2023-05-21T00:41:13.552Z,76.70
2023-05-21T00:41:22.929Z,76.70
2023-05-21T00:41:32.330Z,76.70
2023-05-21T00:41:41.718Z,76.60
2023-05-21T00:42:00.532Z,76.70
2023-05-21T00:42:09.922Z,76.50
2023-05-21T00:42:19.334Z,76.60
2023-05-21T00:42:28.752Z,76.60
2023-05-21T00:42:38.161Z,76.60
2023-05-21T00:42:47.569Z,76.60
2023-05-21T00:43:06.352Z,76.70
2023-05-21T00:43:15.740Z,76.60
2023-05-21T00:43:25.186Z,76.60
2023-05-21T00:43:34.570Z,76.50
2023-05-21T00:43:43.993Z,76.50
2023-05-21T00:43:53.396Z,76.50
2023-05-21T00:44:12.197Z,76.40
2023-05-21T00:44:21.597Z,76.40
2023-05-21T00:44:31.002Z,76.40
2023-05-21T00:44:40.397Z,76.30
2023-05-21T00:44:49.762Z,76.30
2023-05-21T00:44:59.193Z,76.40
2023-05-21T00:45:17.948Z,76.40
2023-05-21T00:45:27.347Z,76.40
2023-05-21T00:45:37.055Z,76.40
2023-05-21T00:45:46.155Z,76.30
2023-05-21T00:45:55.565Z,76.40
2023-05-21T00:46:05.021Z,76.40
2023-05-21T00:46:23.845Z,76.30
2023-05-21T00:46:33.176Z,76.30
2023-05-21T00:46:42.521Z,76.30
2023-05-21T00:46:51.952Z,76.30
2023-05-21T00:47:01.339Z,76.30
2023-05-21T00:47:10.780Z,76.30
2023-05-21T00:47:29.780Z,76.40
2023-05-21T00:47:39.047Z,76.40
2023-05-21T00:47:48.532Z,76.40
2023-05-21T00:47:57.869Z,76.40
2023-05-21T00:48:07.235Z,76.40
2023-05-21T00:48:16.638Z,76.30
2023-05-21T00:48:35.394Z,76.40
2023-05-21T00:48:44.841Z,76.40
2023-05-21T00:48:54.217Z,76.30
2023-05-21T00:49:03.594Z,76.30
2023-05-21T00:49:13.002Z,76.40
2023-05-21T00:49:22.453Z,76.30
2023-05-21T00:49:41.208Z,76.30
2023-05-21T00:49:50.660Z,76.30
2023-05-21T00:50:00.133Z,76.30
2023-05-21T00:50:09.517Z,76.30
2023-05-21T00:50:18.916Z,76.30
2023-05-21T00:50:28.325Z,76.20
2023-05-21T00:50:47.135Z,76.20
2023-05-21T00:50:56.526Z,76.30
2023-05-21T00:51:05.912Z,76.20
2023-05-21T00:51:15.299Z,76.20
2023-05-21T00:51:24.709Z,76.30
2023-05-21T00:51:34.115Z,76.30
2023-05-21T00:51:52.885Z,76.40
2023-05-21T00:52:02.302Z,76.40
2023-05-21T00:52:11.673Z,76.30
2023-05-21T00:52:21.064Z,76.30
2023-05-21T00:52:30.438Z,76.30
2023-05-21T00:52:39.839Z,76.30
2023-05-21T00:52:58.611Z,76.20
2023-05-21T00:53:08.024Z,76.20
2023-05-21T00:53:17.421Z,76.20
2023-05-21T00:53:26.861Z,76.20
2023-05-21T00:53:36.263Z,76.20
2023-05-21T00:53:46.076Z,76.20
2023-05-21T00:54:04.917Z,76.20
2023-05-21T00:54:14.322Z,76.20
2023-05-21T00:54:23.733Z,76.10
2023-05-21T00:54:33.108Z,76.10
2023-05-21T00:54:42.513Z,76.10
2023-05-21T00:54:51.908Z,76.10
2023-05-21T00:55:10.698Z,76.20
2023-05-21T00:55:20.087Z,76.20
2023-05-21T00:55:29.526Z,76.20
2023-05-21T00:55:38.930Z,76.20
2023-05-21T00:55:48.332Z,76.30
2023-05-21T00:55:57.744Z,76.30
2023-05-21T00:56:16.535Z,76.30
2023-05-21T00:56:25.940Z,76.30
2023-05-21T00:56:35.343Z,76.30
2023-05-21T00:56:44.782Z,76.30
2023-05-21T00:56:54.184Z,76.40
2023-05-21T00:57:03.575Z,76.40
2023-05-21T00:57:22.399Z,76.40
2023-05-21T00:57:31.783Z,76.40
2023-05-21T00:57:41.160Z,76.40
2023-05-21T00:57:50.566Z,76.40
2023-05-21T00:57:59.955Z,76.40
2023-05-21T00:58:09.582Z,76.50
2023-05-21T00:58:28.375Z,76.60
2023-05-21T00:58:37.773Z,76.50
2023-05-21T00:58:47.184Z,76.60
2023-05-21T00:58:56.564Z,76.60
2023-05-21T00:59:05.980Z,76.60
2023-05-21T00:59:15.376Z,76.60
2023-05-21T00:59:34.156Z,76.60
2023-05-21T00:59:43.546Z,76.70
2023-05-21T00:59:52.949Z,76.70
2023-05-21T01:00:02.365Z,76.70
2023-05-21T01:00:11.739Z,76.70
2023-05-21T01:00:21.112Z,76.80
2023-05-21T01:00:39.886Z,76.90
2023-05-21T01:00:49.286Z,76.90
2023-05-21T01:00:58.712Z,77.00
2023-05-21T01:01:08.086Z,76.90
2023-05-21T01:01:17.505Z,76.90
2023-05-21T01:01:26.937Z,76.90
2023-05-21T01:01:45.832Z,76.60
2023-05-21T01:01:55.069Z,76.70
2023-05-21T01:02:04.519Z,76.70
2023-05-21T01:02:13.903Z,76.70
2023-05-21T01:02:23.372Z,76.70
2023-05-21T01:02:32.754Z,76.70
2023-05-21T01:02:51.529Z,76.70
2023-05-21T01:03:00.968Z,76.70
2023-05-21T01:03:10.454Z,76.70
2023-05-21T01:03:19.779Z,76.70
2023-05-21T01:03:29.135Z,76.70
2023-05-21T01:03:38.733Z,76.70
2023-05-21T01:03:57.341Z,76.60
2023-05-21T01:04:06.718Z,76.70
2023-05-21T01:04:16.120Z,76.70
2023-05-21T01:04:25.529Z,76.70
2023-05-21T01:04:34.951Z,76.70
2023-05-21T01:04:44.369Z,76.60
2023-05-21T01:05:03.155Z,76.50
2023-05-21T01:05:12.538Z,76.50
2023-05-21T01:05:21.955Z,76.40
2023-05-21T01:05:31.424Z,76.30
2023-05-21T01:05:40.848Z,76.30
2023-05-21T01:05:50.244Z,76.20
2023-05-21T01:06:09.026Z,76.20
2023-05-21T01:06:18.407Z,76.10
2023-05-21T01:06:27.887Z,76.20
2023-05-21T01:06:37.266Z,76.10
2023-05-21T01:06:46.730Z,76.10
2023-05-21T01:06:56.115Z,76.20
2023-05-21T01:07:14.903Z,76.20
2023-05-21T01:07:24.350Z,76.20
2023-05-21T01:07:33.736Z,76.20
2023-05-21T01:07:43.110Z,76.20
2023-05-21T01:07:52.520Z,76.20
2023-05-21T01:08:01.994Z,76.20
2023-05-21T01:08:20.747Z,76.40
2023-05-21T01:08:30.134Z,76.40
2023-05-21T01:08:39.561Z,76.40
2023-05-21T01:08:48.971Z,76.40
2023-05-21T01:08:58.356Z,76.40
2023-05-21T01:09:07.742Z,76.50
2023-05-21T01:09:26.553Z,76.50
2023-05-21T01:09:35.946Z,76.50
2023-05-21T01:09:45.357Z,76.50
2023-05-21T01:09:54.797Z,76.50
2023-05-21T01:10:04.219Z,76.60
2023-05-21T01:10:13.643Z,76.60
2023-05-21T01:10:32.428Z,76.60
2023-05-21T01:10:41.809Z,76.60
2023-05-21T01:10:51.211Z,76.70
2023-05-21T01:11:00.598Z,76.60
2023-05-21T01:11:10.004Z,76.70
2023-05-21T01:11:19.410Z,76.70
2023-05-21T01:11:38.218Z,76.70
2023-05-21T01:11:47.620Z,76.70
2023-05-21T01:11:57.004Z,76.70
2023-05-21T01:12:06.404Z,76.70
2023-05-21T01:12:15.838Z,76.70
2023-05-21T01:12:25.216Z,76.70
2023-05-21T01:12:44.043Z,76.80
2023-05-21T01:12:53.411Z,76.70
2023-05-21T01:13:02.802Z,76.70
2023-05-21T01:13:12.211Z,76.70
2023-05-21T01:13:21.615Z,76.70
2023-05-21T01:13:31.015Z,76.70
2023-05-21T01:13:49.862Z,76.60
2023-05-21T01:13:59.250Z,76.60
2023-05-21T01:14:08.642Z,76.60
2023-05-21T01:14:18.082Z,76.60
2023-05-21T01:14:27.456Z,76.60
2023-05-21T01:14:36.852Z,76.60
2023-05-21T01:14:55.637Z,76.50
2023-05-21T01:15:05.057Z,76.50
2023-05-21T01:15:14.456Z,76.50
2023-05-21T01:15:23.846Z,76.40
2023-05-21T01:15:33.370Z,76.40
2023-05-21T01:15:42.707Z,76.40
2023-05-21T01:16:01.665Z,76.40
2023-05-21T01:16:11.077Z,76.30
2023-05-21T01:16:20.503Z,76.40
2023-05-21T01:16:29.979Z,76.50
2023-05-21T01:16:39.317Z,76.40
2023-05-21T01:16:48.730Z,76.40
2023-05-21T01:17:07.642Z,76.40
2023-05-21T01:17:16.869Z,76.30
2023-05-21T01:17:26.268Z,76.30
2023-05-21T01:17:35.692Z,76.20
2023-05-21T01:17:45.032Z,76.20
2023-05-21T01:17:54.458Z,76.20
2023-05-21T01:18:13.282Z,76.20
2023-05-21T01:18:22.737Z,76.20
2023-05-21T01:18:32.094Z,76.20
2023-05-21T01:18:41.514Z,76.10
2023-05-21T01:18:50.975Z,76.00
2023-05-21T01:19:00.408Z,76.00
2023-05-21T01:19:19.157Z,76.00
2023-05-21T01:19:28.555Z,76.00
2023-05-21T01:19:37.947Z,76.00
2023-05-21T01:19:47.496Z,75.90
2023-05-21T01:19:56.702Z,75.90
2023-05-21T01:20:07.971Z,75.90
2023-05-21T01:20:24.926Z,75.90
2023-05-21T01:20:34.302Z,75.90
2023-05-21T01:20:43.707Z,75.90
2023-05-21T01:20:53.151Z,75.80
2023-05-21T01:21:02.612Z,75.80
2023-05-21T01:21:12.039Z,76.00
2023-05-21T01:21:30.824Z,75.90
2023-05-21T01:21:40.211Z,75.90
2023-05-21T01:21:49.614Z,76.00
2023-05-21T01:21:58.991Z,76.00
2023-05-21T01:22:08.404Z,75.90
2023-05-21T01:22:17.808Z,76.00
2023-05-21T01:22:36.625Z,75.90
2023-05-21T01:22:46.004Z,76.00
2023-05-21T01:22:55.392Z,76.00
2023-05-21T01:23:04.827Z,75.90
2023-05-21T01:23:14.219Z,75.90
2023-05-21T01:23:23.628Z,75.90
2023-05-21T01:23:42.435Z,75.90
2023-05-21T01:23:52.119Z,75.90
2023-05-21T01:24:01.542Z,75.80
2023-05-21T01:24:10.926Z,75.80
2023-05-21T01:24:20.341Z,75.80
2023-05-21T01:24:29.716Z,75.80
2023-05-21T01:24:48.545Z,75.80
2023-05-21T01:24:57.963Z,75.80
2023-05-21T01:25:07.376Z,75.80
2023-05-21T01:25:16.783Z,75.80
2023-05-21T01:25:26.205Z,75.70
2023-05-21T01:25:35.914Z,75.60
2023-05-21T01:25:54.456Z,75.60
2023-05-21T01:26:03.859Z,75.60
2023-05-21T01:26:13.253Z,75.60
2023-05-21T01:26:22.662Z,75.60
2023-05-21T01:26:32.085Z,75.50
2023-05-21T01:26:41.489Z,75.60
2023-05-21T01:27:00.282Z,75.60
2023-05-21T01:27:09.701Z,75.60
2023-05-21T01:27:19.106Z,75.50
2023-05-21T01:27:28.508Z,75.50
2023-05-21T01:27:37.892Z,75.50
2023-05-21T01:27:47.287Z,75.50
2023-05-21T01:28:06.050Z,75.50
2023-05-21T01:28:15.483Z,75.50
2023-05-21T01:28:24.869Z,75.50
2023-05-21T01:28:34.313Z,75.50
2023-05-21T01:28:43.678Z,75.50
2023-05-21T01:28:53.092Z,75.50
2023-05-21T01:29:11.890Z,75.50
2023-05-21T01:29:21.313Z,75.50
2023-05-21T01:29:30.703Z,75.60
2023-05-21T01:29:40.083Z,75.50
2023-05-21T01:29:49.482Z,75.50
2023-05-21T01:29:58.889Z,75.60
2023-05-21T01:30:17.665Z,75.50
2023-05-21T01:30:27.052Z,75.50
2023-05-21T01:30:36.468Z,75.50
2023-05-21T01:30:45.868Z,75.50
2023-05-21T01:30:55.254Z,75.50
2023-05-21T01:31:04.656Z,75.50
2023-05-21T01:31:23.414Z,75.50
2023-05-21T01:31:32.810Z,75.50
2023-05-21T01:31:42.194Z,75.50
2023-05-21T01:31:51.601Z,75.50
2023-05-21T01:32:00.997Z,75.50
2023-05-21T01:32:10.393Z,75.40
2023-05-21T01:32:29.284Z,75.40
2023-05-21T01:32:38.648Z,75.40
2023-05-21T01:32:48.129Z,75.40
2023-05-21T01:32:57.483Z,75.50
2023-05-21T01:33:06.929Z,75.50
2023-05-21T01:33:16.315Z,75.50
2023-05-21T01:33:35.145Z,75.40
2023-05-21T01:33:44.461Z,75.40
2023-05-21T01:33:54.294Z,75.30
2023-05-21T01:34:03.713Z,75.30
2023-05-21T01:34:13.049Z,75.20
2023-05-21T01:34:22.442Z,75.20
2023-05-21T01:34:41.197Z,75.20
2023-05-21T01:34:50.580Z,75.30
2023-05-21T01:34:59.985Z,75.20
2023-05-21T01:35:09.398Z,75.30
2023-05-21T01:35:18.786Z,75.20
2023-05-21T01:35:28.183Z,75.20
2023-05-21T01:35:46.999Z,75.10
2023-05-21T01:35:56.398Z,75.10
2023-05-21T01:36:05.788Z,75.10
2023-05-21T01:36:15.178Z,75.10
2023-05-21T01:36:24.607Z,75.10
2023-05-21T01:36:33.956Z,75.10
2023-05-21T01:36:52.773Z,75.10
2023-05-21T01:37:02.245Z,74.90
2023-05-21T01:37:11.668Z,75.00
2023-05-21T01:37:21.080Z,74.90
2023-05-21T01:37:30.476Z,74.80
2023-05-21T01:37:39.888Z,74.80
2023-05-21T01:37:58.675Z,74.70
2023-05-21T01:38:08.085Z,74.80
2023-05-21T01:38:17.479Z,74.80
2023-05-21T01:38:26.877Z,74.80
2023-05-21T01:38:36.254Z,74.80
2023-05-21T01:38:45.650Z,74.80
2023-05-21T01:39:04.470Z,74.70
2023-05-21T01:39:13.834Z,74.70
2023-05-21T01:39:23.237Z,74.80
2023-05-21T01:39:32.649Z,74.70
2023-05-21T01:39:42.063Z,74.80
2023-05-21T01:39:51.437Z,74.80
2023-05-21T01:40:10.209Z,74.80
2023-05-21T01:40:19.610Z,74.80
2023-05-21T01:40:29.130Z,74.80
2023-05-21T01:40:38.542Z,75.00
2023-05-21T01:40:47.924Z,75.00
2023-05-21T01:40:57.307Z,75.00
2023-05-21T01:41:16.096Z,74.90
2023-05-21T01:41:25.520Z,74.90
2023-05-21T01:41:34.903Z,74.90
2023-05-21T01:41:44.296Z,74.90
2023-05-21T01:41:53.703Z,74.90
2023-05-21T01:42:03.100Z,74.90
2023-05-21T01:42:21.879Z,75.00
2023-05-21T01:42:31.259Z,75.00
2023-05-21T01:42:40.667Z,75.00
2023-05-21T01:42:50.060Z,75.00
2023-05-21T01:42:59.445Z,75.10
2023-05-21T01:43:08.839Z,75.00
2023-05-21T01:43:27.602Z,75.00
2023-05-21T01:43:36.991Z,75.00
2023-05-21T01:43:46.383Z,75.00
2023-05-21T01:43:55.800Z,75.00
2023-05-21T01:44:05.198Z,75.00
2023-05-21T01:44:14.581Z,75.00
2023-05-21T01:44:33.370Z,75.10
2023-05-21T01:44:42.771Z,75.10
2023-05-21T01:44:52.157Z,75.10
2023-05-21T01:45:01.555Z,75.10
2023-05-21T01:45:10.960Z,75.10
2023-05-21T01:45:20.306Z,75.10
2023-05-21T01:45:39.103Z,75.10
2023-05-21T01:45:48.501Z,75.10
2023-05-21T01:45:57.922Z,75.20
2023-05-21T01:46:07.376Z,75.20
2023-05-21T01:46:16.801Z,75.20
2023-05-21T01:46:26.143Z,75.30
2023-05-21T01:46:44.992Z,75.30
2023-05-21T01:46:54.406Z,75.30
2023-05-21T01:47:03.678Z,75.30
2023-05-21T01:47:13.077Z,75.30
2023-05-21T01:47:22.487Z,75.20
2023-05-21T01:47:31.865Z,75.20
2023-05-21T01:47:50.709Z,75.20
2023-05-21T01:48:00.076Z,75.20
2023-05-21T01:48:09.460Z,75.20
2023-05-21T01:48:18.880Z,75.20
2023-05-21T01:48:28.276Z,75.20
2023-05-21T01:48:37.646Z,75.20
2023-05-21T01:49:00.323Z,75.10
2023-05-21T01:49:09.707Z,75.20
2023-05-21T01:49:19.098Z,75.30
2023-05-21T01:49:28.508Z,75.30
2023-05-21T01:49:37.879Z,75.40
2023-05-21T01:49:47.275Z,75.40
2023-05-21T01:50:06.044Z,75.50
2023-05-21T01:50:15.440Z,75.50
2023-05-21T01:50:24.858Z,75.50
2023-05-21T01:50:34.238Z,75.60
2023-05-21T01:50:43.627Z,75.50
2023-05-21T01:50:53.017Z,75.60
2023-05-21T01:51:11.871Z,75.60
2023-05-21T01:51:21.259Z,75.60
2023-05-21T01:51:30.644Z,75.70
2023-05-21T01:51:40.021Z,75.60
2023-05-21T01:51:49.417Z,75.70
2023-05-21T01:51:58.821Z,75.80
2023-05-21T01:52:17.622Z,75.70
2023-05-21T01:52:27.008Z,75.60
2023-05-21T01:52:36.413Z,75.60
2023-05-21T01:52:45.798Z,75.60
2023-05-21T01:52:55.178Z,75.60
2023-05-21T01:53:04.582Z,75.60
2023-05-21T01:53:23.380Z,75.60
2023-05-21T01:53:32.768Z,75.60
2023-05-21T01:53:42.172Z,75.70
2023-05-21T01:53:51.545Z,75.80
2023-05-21T01:54:01.002Z,75.80
2023-05-21T01:54:10.415Z,75.80
2023-05-21T01:54:29.239Z,75.60
2023-05-21T01:54:38.635Z,75.70
2023-05-21T01:54:48.007Z,75.70
2023-05-21T01:54:57.413Z,75.60
2023-05-21T01:55:06.805Z,75.60
2023-05-21T01:55:16.192Z,75.50
2023-05-21T01:55:35.105Z,75.50
2023-05-21T01:55:44.358Z,75.50
2023-05-21T01:55:54.156Z,75.50
2023-05-21T01:56:03.569Z,75.50
2023-05-21T01:56:12.958Z,75.50
2023-05-21T01:56:22.341Z,75.40
2023-05-21T01:56:41.170Z,75.60
2023-05-21T01:56:50.550Z,75.60
2023-05-21T01:57:00.003Z,75.50
2023-05-21T01:57:09.337Z,75.50
2023-05-21T01:57:18.725Z,75.60
2023-05-21T01:57:28.172Z,75.50
2023-05-21T01:57:46.993Z,75.50
2023-05-21T01:57:56.419Z,75.60
2023-05-21T01:58:05.790Z,75.60
2023-05-21T01:58:15.174Z,75.60
2023-05-21T01:58:24.556Z,75.60
2023-05-21T01:58:33.935Z,75.60
2023-05-21T01:58:52.702Z,75.70
2023-05-21T01:59:02.253Z,75.60
2023-05-21T01:59:11.646Z,75.80
2023-05-21T01:59:21.036Z,75.90
2023-05-21T01:59:30.433Z,75.90
2023-05-21T01:59:39.837Z,75.80
2023-05-21T01:59:58.851Z,75.80
2023-05-21T02:00:08.256Z,75.80
2023-05-21T02:00:17.674Z,75.80
2023-05-21T02:00:27.044Z,75.80
2023-05-21T02:00:36.471Z,75.80
2023-05-21T02:00:45.867Z,75.80
2023-05-21T02:01:04.641Z,75.70
2023-05-21T02:01:14.035Z,75.80
2023-05-21T02:01:23.421Z,75.80
2023-05-21T02:01:32.859Z,75.80
2023-05-21T02:01:42.314Z,75.80
2023-05-21T02:01:51.721Z,75.90
2023-05-21T02:02:10.554Z,75.90
2023-05-21T02:02:19.893Z,75.90
2023-05-21T02:02:29.291Z,75.80
2023-05-21T02:02:38.649Z,75.90
2023-05-21T02:02:48.028Z,75.80
2023-05-21T02:02:57.434Z,75.80
2023-05-21T02:03:16.453Z,75.90
2023-05-21T02:03:25.806Z,75.90
2023-05-21T02:03:35.081Z,75.90
2023-05-21T02:03:44.533Z,76.00
2023-05-21T02:03:53.966Z,76.00
2023-05-21T02:04:03.393Z,76.00
2023-05-21T02:04:22.041Z,76.10
2023-05-21T02:04:31.430Z,76.00
2023-05-21T02:04:40.830Z,76.00
2023-05-21T02:04:50.237Z,76.10
2023-05-21T02:04:59.659Z,76.10
2023-05-21T02:05:09.070Z,76.10
2023-05-21T02:05:27.847Z,76.00
2023-05-21T02:05:37.474Z,75.90
2023-05-21T02:05:46.607Z,76.00
2023-05-21T02:05:55.979Z,75.90
2023-05-21T02:06:05.393Z,75.90
2023-05-21T02:06:14.804Z,75.80
2023-05-21T02:06:33.605Z,75.70
2023-05-21T02:06:42.979Z,75.70
2023-05-21T02:06:52.374Z,75.60
2023-05-21T02:07:01.760Z,75.60
2023-05-21T02:07:11.142Z,75.60
2023-05-21T02:07:20.562Z,75.60
2023-05-21T02:07:39.362Z,75.60
2023-05-21T02:07:48.749Z,75.60
2023-05-21T02:07:58.142Z,75.60
2023-05-21T02:08:07.523Z,75.60
2023-05-21T02:08:16.890Z,75.70
2023-05-21T02:08:26.285Z,75.70
2023-05-21T02:08:45.092Z,75.60
2023-05-21T02:08:54.471Z,75.60
2023-05-21T02:09:03.960Z,75.60
2023-05-21T02:09:13.336Z,75.60
2023-05-21T02:09:22.727Z,75.60
2023-05-21T02:09:32.128Z,75.60
2023-05-21T02:09:50.990Z,75.50
2023-05-21T02:10:00.382Z,75.60
2023-05-21T02:10:09.823Z,75.80
2023-05-21T02:10:19.260Z,75.80
2023-05-21T02:10:28.621Z,75.70
2023-05-21T02:10:38.038Z,75.70
2023-05-21T02:10:56.846Z,75.60
2023-05-21T02:11:06.232Z,75.60
2023-05-21T02:11:15.640Z,75.50
2023-05-21T02:11:25.035Z,75.50
2023-05-21T02:11:34.457Z,75.40
2023-05-21T02:11:43.886Z,75.50
2023-05-21T02:12:02.736Z,75.50
2023-05-21T02:12:12.098Z,75.60
2023-05-21T02:12:21.502Z,75.60
2023-05-21T02:12:30.889Z,75.70
2023-05-21T02:12:40.273Z,75.70
2023-05-21T02:12:49.638Z,75.70
2023-05-21T02:13:08.477Z,75.60
2023-05-21T02:13:17.894Z,75.60
2023-05-21T02:13:27.270Z,75.70
2023-05-21T02:13:36.649Z,75.70
2023-05-21T02:13:46.213Z,75.80
2023-05-21T02:13:55.471Z,75.90
2023-05-21T02:14:14.329Z,75.80
2023-05-21T02:14:23.722Z,75.80
2023-05-21T02:14:33.157Z,75.80
2023-05-21T02:14:42.588Z,75.70
2023-05-21T02:14:52.228Z,75.70
2023-05-21T02:15:01.632Z,75.60
2023-05-21T02:15:20.448Z,75.70
2023-05-21T02:15:29.802Z,75.60
2023-05-21T02:15:39.184Z,75.60
2023-05-21T02:15:48.624Z,75.50
2023-05-21T02:15:58.011Z,75.50
2023-05-21T02:16:07.382Z,75.50
2023-05-21T02:16:26.272Z,75.60
2023-05-21T02:16:35.608Z,75.60
2023-05-21T02:16:45.088Z,75.70
2023-05-21T02:16:54.388Z,75.70
2023-05-21T02:17:03.787Z,75.70
2023-05-21T02:17:13.197Z,75.70
2023-05-21T02:17:32.079Z,75.70
2023-05-21T02:17:41.482Z,75.60
2023-05-21T02:17:50.878Z,75.60
2023-05-21T02:18:00.310Z,75.60
2023-05-21T02:18:09.730Z,75.60
2023-05-21T02:18:19.083Z,75.70
2023-05-21T02:18:37.897Z,75.60
2023-05-21T02:18:47.294Z,75.60
2023-05-21T02:18:56.719Z,75.60
2023-05-21T02:19:06.156Z,75.60
2023-05-21T02:19:15.552Z,75.60
2023-05-21T02:19:24.956Z,75.60
2023-05-21T02:19:43.653Z,75.70
2023-05-21T02:19:53.053Z,75.70
2023-05-21T02:20:02.434Z,75.70
2023-05-21T02:20:11.891Z,75.70
2023-05-21T02:20:21.249Z,75.90
2023-05-21T02:20:30.650Z,75.90
2023-05-21T02:20:49.399Z,75.80
2023-05-21T02:20:58.789Z,75.90
2023-05-21T02:21:08.205Z,76.00
2023-05-21T02:21:17.593Z,76.00
2023-05-21T02:21:26.999Z,76.00